Time;durP1;ratioP1;P1;durP2;ratioP2;P2;SDS_P1;SDS_P2;PMS_P1;PMS_P2;Temp;Humidity;BMP_temperature;BMP_pressure;BME280_temperature;BME280_humidity;BME280_pressure;Samples;Min_cycle;Max_cycle;Signal;HPM_P1;HPM_P2
2022/10/09 00:01:37;;;;;;;11.35;6.20;;;7.30;99.90;;;;;;5035118;28;20146;-67
2022/10/09 00:04:04;;;;;;;8.07;4.38;;;7.30;99.90;;;;;;5052740;28;20045;-67
2022/10/09 00:06:32;;;;;;;8.45;4.70;;;7.30;99.90;;;;;;5056109;28;20496;-67
2022/10/09 00:09:00;;;;;;;8.50;4.53;;;7.20;99.90;;;;;;5057046;28;20041;-67
2022/10/09 00:11:28;;;;;;;8.38;4.28;;;7.20;99.90;;;;;;5056614;28;20096;-67
2022/10/09 00:13:55;;;;;;;10.55;4.82;;;7.20;99.90;;;;;;5055024;28;20431;-67
2022/10/09 00:16:22;;;;;;;10.02;4.00;;;7.20;99.90;;;;;;5056511;28;20427;-67
2022/10/09 00:18:49;;;;;;;9.35;5.72;;;7.10;99.90;;;;;;5055939;28;20041;-67
2022/10/09 00:21:18;;;;;;;6.47;4.50;;;7.20;99.90;;;;;;5056613;28;20049;-67
2022/10/09 00:23:45;;;;;;;7.28;3.65;;;7.10;99.90;;;;;;5055422;28;20037;-67
2022/10/09 00:26:12;;;;;;;7.00;4.10;;;7.10;99.90;;;;;;5055922;28;20431;-67
2022/10/09 00:28:39;;;;;;;6.50;4.10;;;7.10;99.90;;;;;;5038616;28;20045;-67
2022/10/09 00:31:07;;;;;;;8.93;4.82;;;7.00;99.90;;;;;;5054796;28;20051;-67
2022/10/09 00:33:34;;;;;;;6.63;4.20;;;7.00;99.90;;;;;;5038434;28;20502;-67
2022/10/09 00:36:03;;;;;;;11.88;4.60;;;6.90;99.90;;;;;;5056157;28;20040;-68
2022/10/09 00:38:30;;;;;;;8.00;4.70;;;6.90;99.90;;;;;;5054783;28;20041;-67
2022/10/09 00:40:57;;;;;;;7.32;4.05;;;6.90;99.90;;;;;;5055842;28;20431;-68
2022/10/09 00:43:45;;;;;;;9.75;4.10;;;6.80;99.90;;;;;;5054799;28;20371;-67
2022/10/09 00:46:21;;;;;;;9.07;4.00;;;6.90;99.90;;;;;;5056658;28;20049;-67
2022/10/09 00:49:01;;;;;;;6.35;4.78;;;6.80;99.90;;;;;;5039681;28;20115;-67
2022/10/09 00:51:29;;;;;;;6.53;4.25;;;6.80;99.90;;;;;;5040545;28;20098;-67
2022/10/09 00:53:56;;;;;;;10.57;4.70;;;6.80;99.90;;;;;;5054573;28;20095;-67
2022/10/09 00:56:23;;;;;;;7.90;4.25;;;6.80;99.90;;;;;;5037716;28;20080;-67
2022/10/09 00:58:52;;;;;;;9.90;5.15;;;6.70;99.90;;;;;;5054544;28;20431;-67
2022/10/09 01:01:19;;;;;;;14.55;4.05;;;6.70;99.90;;;;;;5054708;28;20176;-67
2022/10/09 01:03:46;;;;;;;7.13;4.18;;;6.60;99.90;;;;;;5037901;28;20045;-67
2022/10/09 01:06:17;;;;;;;8.98;3.75;;;6.70;99.90;;;;;;5055233;28;20041;-67
2022/10/09 01:09:00;;;;;;;7.03;3.88;;;6.70;99.90;;;;;;5054295;28;20087;-67
2022/10/09 01:11:49;;;;;;;9.95;3.65;;;6.70;99.90;;;;;;5054716;28;20080;-68
2022/10/09 01:14:15;;;;;;;16.73;6.15;;;6.70;99.90;;;;;;5053915;28;20049;-67
2022/10/09 01:17:07;;;;;;;7.00;3.88;;;6.70;99.90;;;;;;5054282;28;20118;-67
2022/10/09 01:20:00;;;;;;;6.28;3.83;;;6.70;99.90;;;;;;5054630;28;20091;-67
2022/10/09 01:22:40;;;;;;;7.38;3.85;;;6.70;99.90;;;;;;5054799;28;20071;-67
2022/10/09 01:25:10;;;;;;;7.25;3.58;;;6.70;99.90;;;;;;5054018;28;20049;-67
2022/10/09 01:27:37;;;;;;;8.13;4.53;;;6.70;99.90;;;;;;5054825;28;20428;-67
2022/10/09 01:30:10;;;;;;;9.38;4.55;;;6.60;99.90;;;;;;5053578;28;20036;-67
2022/10/09 01:32:43;;;;;;;7.43;3.83;;;6.60;99.90;;;;;;5053542;28;20044;-67
2022/10/09 01:35:10;;;;;;;6.65;3.40;;;6.60;99.90;;;;;;5037882;28;20049;-67
2022/10/09 01:37:38;;;;;;;7.40;3.38;;;6.50;99.90;;;;;;5054530;28;20044;-67
2022/10/09 01:40:05;;;;;;;9.07;4.57;;;6.50;99.90;;;;;;5053711;28;20370;-67
2022/10/09 01:42:32;;;;;;;11.70;4.05;;;6.50;99.90;;;;;;5053290;28;20550;-68
2022/10/09 01:44:59;;;;;;;10.40;4.47;;;6.50;99.90;;;;;;5053321;28;20465;-67
2022/10/09 01:47:26;;;;;;;7.95;3.60;;;6.40;99.90;;;;;;5053227;28;20098;-67
2022/10/09 01:50:08;;;;;;;7.63;4.32;;;6.40;99.90;;;;;;5054384;28;20114;-67
2022/10/09 01:52:51;;;;;;;9.95;4.13;;;6.40;99.90;;;;;;5037332;28;20052;-67
2022/10/09 01:55:55;;;;;;;7.15;3.30;;;6.30;99.90;;;;;;5053223;28;20041;-67
2022/10/09 01:58:45;;;;;;;8.32;2.95;;;6.30;99.90;;;;;;5052113;28;20435;-67
2022/10/09 02:01:16;;;;;;;6.75;3.03;;;6.20;99.90;;;;;;5055303;28;20052;-67
2022/10/09 02:03:45;;;;;;;8.57;3.70;;;6.20;99.90;;;;;;5036726;28;20041;-67
2022/10/09 02:06:12;;;;;;;8.68;3.75;;;6.20;99.90;;;;;;5052938;28;20045;-67
2022/10/09 02:08:39;;;;;;;7.22;3.40;;;6.10;99.90;;;;;;5036497;28;20041;-67
2022/10/09 02:11:06;;;;;;;20.13;4.20;;;6.10;99.90;;;;;;5053143;28;20045;-67
2022/10/09 02:13:33;;;;;;;7.07;3.80;;;6.10;99.90;;;;;;5054758;28;20037;-67
2022/10/09 02:16:36;;;;;;;6.90;3.33;;;6.10;99.90;;;;;;5053760;28;20461;-67
2022/10/09 02:19:10;;;;;;;6.10;3.15;;;6.00;99.90;;;;;;5052965;28;20098;-67
2022/10/09 02:21:39;;;;;;;9.68;3.05;;;6.00;99.90;;;;;;5052665;28;20499;-67
2022/10/09 02:24:16;;;;;;;10.70;3.50;;;6.00;99.90;;;;;;5053161;28;20056;-67
2022/10/09 02:26:42;;;;;;;6.18;3.50;;;6.10;99.90;;;;;;5053640;28;20072;-67
2022/10/09 02:29:09;;;;;;;6.10;3.10;;;6.00;99.90;;;;;;5036944;28;20045;-67
2022/10/09 02:31:37;;;;;;;5.68;3.33;;;6.00;99.90;;;;;;5053258;28;20052;-67
2022/10/09 02:34:06;;;;;;;6.90;3.22;;;6.00;99.90;;;;;;5035969;28;20049;-67
2022/10/09 02:36:33;;;;;;;6.20;3.00;;;6.00;99.90;;;;;;5036663;28;20052;-67
2022/10/09 02:39:00;;;;;;;5.90;3.22;;;5.90;99.90;;;;;;5052651;28;20049;-67
2022/10/09 02:41:27;;;;;;;7.25;3.83;;;5.90;99.90;;;;;;5053721;28;20377;-67
2022/10/09 02:43:54;;;;;;;5.05;3.83;;;5.90;99.90;;;;;;5052298;28;20526;-67
2022/10/09 02:46:21;;;;;;;8.88;2.78;;;5.90;99.90;;;;;;5052456;28;20534;-67
2022/10/09 02:48:48;;;;;;;5.20;2.92;;;5.90;99.90;;;;;;5052269;28;20045;-68
2022/10/09 02:51:15;;;;;;;4.63;3.00;;;5.80;99.90;;;;;;5052189;28;20041;-67
2022/10/09 02:53:41;;;;;;;5.97;2.65;;;5.80;99.90;;;;;;5052396;28;20110;-67
2022/10/09 02:56:08;;;;;;;5.68;2.80;;;5.80;99.90;;;;;;5052364;28;20049;-67
2022/10/09 02:58:35;;;;;;;5.72;2.63;;;5.80;99.90;;;;;;5052273;28;20464;-67
2022/10/09 03:01:03;;;;;;;5.22;2.80;;;5.70;99.90;;;;;;5054499;28;20403;-67
2022/10/09 03:03:30;;;;;;;6.22;2.50;;;5.80;99.90;;;;;;5054265;28;20118;-67
2022/10/09 03:06:04;;;;;;;4.10;2.72;;;5.70;99.90;;;;;;5052495;28;20445;-67
2022/10/09 03:08:31;;;;;;;7.80;3.00;;;5.70;99.90;;;;;;5054218;28;20095;-67
2022/10/09 03:10:58;;;;;;;4.85;2.67;;;5.70;99.90;;;;;;5052072;28;20045;-67
2022/10/09 03:13:25;;;;;;;5.55;2.90;;;5.70;99.90;;;;;;5053329;28;20037;-67
2022/10/09 03:15:52;;;;;;;7.30;2.88;;;5.70;99.90;;;;;;5054008;28;20045;-67
2022/10/09 03:18:19;;;;;;;9.60;3.53;;;5.60;99.90;;;;;;5052053;28;20389;-67
2022/10/09 03:20:45;;;;;;;4.32;2.55;;;5.70;99.90;;;;;;5051854;28;20469;-67
2022/10/09 03:23:12;;;;;;;6.00;2.88;;;5.60;99.90;;;;;;5053150;28;20140;-67
2022/10/09 03:25:39;;;;;;;4.45;2.50;;;5.60;99.90;;;;;;5053052;28;20045;-67
2022/10/09 03:28:06;;;;;;;5.60;2.80;;;5.60;99.90;;;;;;5051882;28;20048;-67
2022/10/09 03:30:33;;;;;;;6.10;2.55;;;5.60;99.90;;;;;;5052841;28;20087;-67
2022/10/09 03:33:00;;;;;;;4.78;2.70;;;5.60;99.90;;;;;;5053895;28;20382;-67
2022/10/09 03:35:27;;;;;;;5.50;2.70;;;5.60;99.90;;;;;;5052861;28;20528;-67
2022/10/09 03:37:54;;;;;;;4.30;2.20;;;5.50;99.90;;;;;;5051640;28;20122;-67
2022/10/09 03:40:21;;;;;;;5.43;2.53;;;5.50;99.90;;;;;;5053744;28;20045;-67
2022/10/09 03:42:48;;;;;;;7.05;3.00;;;5.50;99.90;;;;;;5055576;28;20041;-67
2022/10/09 03:45:15;;;;;;;3.65;2.15;;;5.50;99.90;;;;;;5056478;28;20098;-67
2022/10/09 03:47:42;;;;;;;4.53;2.40;;;5.40;99.90;;;;;;5055620;28;20098;-67
2022/10/09 03:50:09;;;;;;;4.35;2.13;;;5.50;99.90;;;;;;5055775;28;20103;-67
2022/10/09 03:52:36;;;;;;;4.18;2.17;;;5.40;99.90;;;;;;5057012;28;20056;-67
2022/10/09 03:55:03;;;;;;;6.53;2.53;;;5.40;99.90;;;;;;5040050;28;20045;-67
2022/10/09 03:57:30;;;;;;;4.43;2.55;;;5.40;99.90;;;;;;5055717;28;20041;-68
2022/10/09 03:59:57;;;;;;;5.28;3.20;;;5.40;99.90;;;;;;5055201;28;20049;-67
2022/10/09 04:02:23;;;;;;;7.57;3.55;;;5.40;99.90;;;;;;5039079;28;20041;-67
2022/10/09 04:04:50;;;;;;;4.68;2.75;;;5.40;99.90;;;;;;5055514;28;20048;-67
2022/10/09 04:07:17;;;;;;;4.45;2.80;;;5.30;99.90;;;;;;5055446;28;20048;-67
2022/10/09 04:09:44;;;;;;;8.70;3.67;;;5.30;99.90;;;;;;5057428;28;20037;-67
2022/10/09 04:12:11;;;;;;;4.22;2.35;;;5.30;99.90;;;;;;5055042;28;20049;-67
2022/10/09 04:14:38;;;;;;;5.38;3.35;;;5.30;99.90;;;;;;5055037;28;20041;-67
2022/10/09 04:17:05;;;;;;;4.45;2.50;;;5.30;99.90;;;;;;5056676;28;20523;-67
2022/10/09 04:19:32;;;;;;;5.43;2.95;;;5.30;99.90;;;;;;5055237;28;20041;-67
2022/10/09 04:21:59;;;;;;;5.05;2.35;;;5.30;99.90;;;;;;5057369;28;20045;-67
2022/10/09 04:24:25;;;;;;;4.90;2.38;;;5.30;99.90;;;;;;5055032;28;20056;-67
2022/10/09 04:26:52;;;;;;;8.70;2.67;;;5.30;99.90;;;;;;5054790;28;20098;-67
2022/10/09 04:29:19;;;;;;;5.55;2.55;;;5.20;99.90;;;;;;5056732;28;20094;-67
2022/10/09 04:31:46;;;;;;;4.78;2.63;;;5.20;99.90;;;;;;5054910;28;20056;-66
2022/10/09 04:34:13;;;;;;;5.18;2.20;;;5.20;99.90;;;;;;5056160;28;20044;-68
2022/10/09 04:36:40;;;;;;;5.07;2.42;;;5.20;99.90;;;;;;5056152;28;20190;-67
2022/10/09 04:39:07;;;;;;;5.80;2.58;;;5.20;99.90;;;;;;5056803;28;20423;-67
2022/10/09 04:41:34;;;;;;;8.55;3.35;;;5.10;99.90;;;;;;5055708;28;20412;-67
2022/10/09 04:44:04;;;;;;;3.67;2.03;;;5.20;99.90;;;;;;5055751;28;20128;-67
2022/10/09 04:46:31;;;;;;;4.10;2.17;;;5.20;99.90;;;;;;5054365;28;20040;-67
2022/10/09 04:48:57;;;;;;;5.63;2.45;;;5.10;99.90;;;;;;5054342;28;20048;-68
2022/10/09 04:51:24;;;;;;;4.05;2.10;;;5.10;99.90;;;;;;5055483;28;20041;-67
2022/10/09 04:53:51;;;;;;;3.78;1.92;;;5.10;99.90;;;;;;5054831;28;20052;-67
2022/10/09 04:56:23;;;;;;;4.55;2.95;;;5.10;99.90;;;;;;5055037;28;20133;-67
2022/10/09 04:58:49;;;;;;;4.53;2.50;;;5.10;99.90;;;;;;5054542;28;20048;-67
2022/10/09 05:01:21;;;;;;;7.40;3.15;;;5.10;99.90;;;;;;5055883;28;20048;-67
2022/10/09 05:03:48;;;;;;;4.00;2.20;;;5.10;99.90;;;;;;5054219;28;20057;-67
2022/10/09 05:06:15;;;;;;;4.32;2.38;;;5.10;99.90;;;;;;5054629;28;20485;-67
2022/10/09 05:08:42;;;;;;;7.20;3.08;;;5.10;99.90;;;;;;5054800;28;20098;-66
2022/10/09 05:11:17;;;;;;;9.52;2.97;;;5.10;99.90;;;;;;5055538;28;20102;-67
2022/10/09 05:13:46;;;;;;;6.43;2.78;;;5.00;99.90;;;;;;5038860;28;20045;-67
2022/10/09 05:16:18;;;;;;;4.95;2.35;;;5.10;99.90;;;;;;5037570;28;20049;-67
2022/10/09 05:18:47;;;;;;;4.65;3.20;;;5.00;99.90;;;;;;5053972;28;20041;-67
2022/10/09 05:21:14;;;;;;;5.90;2.90;;;5.00;99.90;;;;;;5055925;28;20049;-67
2022/10/09 05:23:41;;;;;;;6.50;2.53;;;5.00;99.90;;;;;;5053978;28;20045;-67
2022/10/09 05:26:10;;;;;;;4.60;2.33;;;5.00;99.90;;;;;;5054848;28;20321;-67
2022/10/09 05:28:37;;;;;;;4.35;2.50;;;5.00;99.90;;;;;;5053793;28;20067;-67
2022/10/09 05:31:05;;;;;;;4.03;2.13;;;4.90;99.90;;;;;;5053844;28;20040;-67
2022/10/09 05:33:32;;;;;;;4.25;2.33;;;4.90;99.90;;;;;;5054839;28;20473;-67
2022/10/09 05:36:01;;;;;;;6.72;2.65;;;4.90;99.90;;;;;;5054385;28;20045;-67
2022/10/09 05:38:28;;;;;;;3.88;2.28;;;4.90;99.90;;;;;;5053549;28;20045;-67
2022/10/09 05:40:55;;;;;;;8.45;2.80;;;4.90;99.90;;;;;;5054505;28;20118;-67
2022/10/09 05:43:26;;;;;;;5.70;2.13;;;4.90;99.90;;;;;;5054461;28;20041;-67
2022/10/09 05:45:53;;;;;;;4.40;2.90;;;4.90;99.90;;;;;;5053956;28;20051;-67
2022/10/09 05:48:20;;;;;;;5.38;3.08;;;4.90;99.90;;;;;;5037241;28;20052;-67
2022/10/09 05:50:47;;;;;;;8.38;2.88;;;4.80;99.90;;;;;;5054887;28;20045;-67
2022/10/09 05:53:14;;;;;;;7.07;2.80;;;4.80;99.90;;;;;;5054122;28;20041;-67
2022/10/09 05:55:41;;;;;;;11.25;3.75;;;4.80;99.90;;;;;;5055162;28;20510;-67
2022/10/09 05:58:08;;;;;;;5.22;3.03;;;4.80;99.90;;;;;;5054888;28;20065;-67
2022/10/09 06:00:34;;;;;;;5.07;2.60;;;4.70;99.90;;;;;;5053288;28;20083;-67
2022/10/09 06:03:01;;;;;;;5.55;2.40;;;4.70;99.90;;;;;;5052793;28;20090;-67
2022/10/09 06:05:28;;;;;;;5.15;2.72;;;4.70;99.90;;;;;;5053322;28;20121;-67
2022/10/09 06:07:55;;;;;;;6.68;3.40;;;4.70;99.90;;;;;;5054385;28;20037;-67
2022/10/09 06:10:22;;;;;;;5.40;2.42;;;4.70;99.90;;;;;;5053435;28;20098;-67
2022/10/09 06:12:49;;;;;;;8.32;3.45;;;4.80;99.90;;;;;;5055201;28;20098;-67
2022/10/09 06:15:16;;;;;;;6.10;2.88;;;4.70;99.90;;;;;;5054002;28;20053;-67
2022/10/09 06:17:43;;;;;;;6.35;2.60;;;4.70;99.90;;;;;;5053553;28;20096;-67
2022/10/09 06:20:10;;;;;;;4.85;2.63;;;4.70;99.90;;;;;;5053127;28;20052;-67
2022/10/09 06:22:37;;;;;;;4.30;2.42;;;4.70;99.90;;;;;;5053122;28;20543;-67
2022/10/09 06:25:04;;;;;;;10.13;3.10;;;4.70;99.90;;;;;;5036726;28;20114;-67
2022/10/09 06:27:31;;;;;;;3.90;2.72;;;4.70;99.90;;;;;;5053179;28;20052;-67
2022/10/09 06:29:58;;;;;;;4.93;2.63;;;4.70;99.90;;;;;;5036794;28;20106;-67
2022/10/09 06:32:24;;;;;;;6.20;3.17;;;4.70;99.90;;;;;;5052474;28;20041;-67
2022/10/09 06:34:52;;;;;;;4.97;2.58;;;4.70;99.90;;;;;;5052787;28;20091;-67
2022/10/09 06:37:19;;;;;;;6.15;3.70;;;4.70;99.90;;;;;;5052423;28;20037;-67
2022/10/09 06:39:46;;;;;;;11.25;3.85;;;4.70;99.90;;;;;;5053834;28;20044;-67
2022/10/09 06:42:13;;;;;;;7.63;3.25;;;4.70;99.90;;;;;;5053448;28;20045;-67
2022/10/09 06:44:42;;;;;;;8.00;3.80;;;4.70;99.90;;;;;;5052578;28;20041;-67
2022/10/09 06:47:09;;;;;;;6.03;2.72;;;4.70;99.90;;;;;;5053507;28;20041;-67
2022/10/09 06:49:35;;;;;;;5.18;2.72;;;4.70;99.90;;;;;;5053428;28;20056;-67
2022/10/09 06:52:02;;;;;;;7.28;3.10;;;4.80;99.90;;;;;;5053938;28;20048;-67
2022/10/09 06:54:29;;;;;;;11.68;3.42;;;4.80;99.90;;;;;;5053175;28;20098;-67
2022/10/09 06:56:56;;;;;;;8.07;3.08;;;4.80;99.90;;;;;;5053816;28;20041;-67
2022/10/09 06:59:23;;;;;;;7.07;2.83;;;4.90;99.90;;;;;;5054005;28;20044;-67
2022/10/09 07:01:50;;;;;;;9.77;3.38;;;4.90;99.90;;;;;;5053296;28;20044;-66
2022/10/09 07:04:17;;;;;;;6.15;3.38;;;4.90;99.90;;;;;;5053091;28;20460;-67
2022/10/09 07:06:45;;;;;;;11.38;3.20;;;5.00;99.90;;;;;;5053006;28;20488;-67
2022/10/09 07:09:13;;;;;;;6.65;3.45;;;5.00;99.90;;;;;;5051966;28;20044;-66
2022/10/09 07:11:44;;;;;;;6.82;4.07;;;5.10;99.90;;;;;;5052249;28;20041;-67
2022/10/09 07:14:12;;;;;;;8.63;3.42;;;5.20;99.90;;;;;;5035093;28;20040;-67
2022/10/09 07:16:40;;;;;;;6.43;2.97;;;5.30;99.90;;;;;;5053672;28;20057;-67
2022/10/09 07:19:09;;;;;;;11.45;3.88;;;5.30;99.90;;;;;;5035408;28;20141;-67
2022/10/09 07:21:38;;;;;;;8.73;3.20;;;5.40;99.90;;;;;;5051904;28;20124;-67
2022/10/09 07:24:05;;;;;;;6.88;3.85;;;5.50;99.90;;;;;;5051985;28;20045;-67
2022/10/09 07:26:34;;;;;;;6.63;3.63;;;5.60;99.90;;;;;;5053811;28;20122;-67
2022/10/09 07:29:01;;;;;;;9.68;3.58;;;5.70;99.90;;;;;;5052016;28;20041;-67
2022/10/09 07:31:28;;;;;;;19.23;5.90;;;5.80;99.90;;;;;;5052322;28;20041;-67
2022/10/09 07:33:55;;;;;;;7.75;2.88;;;6.00;99.90;;;;;;5053149;28;20052;-67
2022/10/09 07:36:22;;;;;;;9.85;2.97;;;6.20;99.90;;;;;;5053170;28;20052;-67
2022/10/09 07:38:50;;;;;;;12.93;4.68;;;6.30;99.90;;;;;;5035529;28;20102;-67
2022/10/09 07:41:17;;;;;;;11.80;2.42;;;6.50;99.90;;;;;;5051657;28;20041;-67
2022/10/09 07:43:44;;;;;;;8.75;2.30;;;6.70;99.90;;;;;;5053508;28;20049;-67
2022/10/09 07:46:12;;;;;;;6.70;2.95;;;6.80;99.90;;;;;;5053072;28;20057;-67
2022/10/09 07:48:39;;;;;;;6.72;2.80;;;7.00;99.90;;;;;;5053067;28;20094;-67
2022/10/09 07:51:23;;;;;;;14.00;3.25;;;7.10;99.90;;;;;;5051899;28;20049;-67
2022/10/09 07:53:50;;;;;;;10.38;3.03;;;7.20;99.90;;;;;;5051881;28;20135;-67
2022/10/09 07:56:18;;;;;;;8.07;2.40;;;7.40;99.90;;;;;;5051920;28;20531;-67
2022/10/09 07:58:49;;;;;;;7.70;2.80;;;7.50;99.90;;;;;;5052624;28;20051;-67
2022/10/09 08:01:16;;;;;;;10.13;2.80;;;7.70;99.90;;;;;;5051387;28;20067;-67
2022/10/09 08:03:46;;;;;;;12.63;2.47;;;7.80;99.90;;;;;;5051983;28;20052;-67
2022/10/09 08:06:13;;;;;;;5.22;1.98;;;8.00;99.90;;;;;;5052288;28;20146;-67
2022/10/09 08:08:40;;;;;;;8.00;2.85;;;8.20;99.90;;;;;;5053038;28;20091;-67
2022/10/09 08:11:11;;;;;;;8.15;2.47;;;8.30;99.90;;;;;;5052838;28;20083;-67
2022/10/09 08:13:38;;;;;;;10.40;2.45;;;8.50;99.90;;;;;;5052594;28;20045;-67
2022/10/09 08:16:05;;;;;;;7.22;2.05;;;8.70;99.90;;;;;;5035105;28;20056;-67
2022/10/09 08:18:33;;;;;;;6.47;2.28;;;8.90;99.90;;;;;;5052333;28;20144;-68
2022/10/09 08:21:04;;;;;;;7.28;2.38;;;9.00;99.90;;;;;;5051653;28;20045;-67
2022/10/09 08:23:31;;;;;;;10.63;2.47;;;9.10;99.90;;;;;;5052284;28;20045;-67
2022/10/09 08:25:58;;;;;;;6.07;2.20;;;9.40;99.90;;;;;;5052616;28;20442;-67
2022/10/09 08:28:25;;;;;;;9.88;2.97;;;9.60;99.90;;;;;;5056837;28;20158;-67
2022/10/09 08:30:52;;;;;;;9.35;2.70;;;9.70;99.90;;;;;;5054807;28;20052;-67
2022/10/09 08:33:20;;;;;;;6.55;2.05;;;9.90;99.90;;;;;;5054797;28;20481;-67
2022/10/09 08:35:50;;;;;;;17.27;2.97;;;10.10;99.90;;;;;;5038453;28;20037;-67
2022/10/09 08:38:17;;;;;;;7.40;2.17;;;10.20;99.90;;;;;;5055902;28;20041;-67
2022/10/09 08:41:14;;;;;;;5.90;2.15;;;10.30;99.90;;;;;;5055372;28;20051;-67
2022/10/09 08:43:43;;;;;;;9.70;2.47;;;10.50;99.90;;;;;;5055696;28;20044;-67
2022/10/09 08:46:16;;;;;;;8.07;3.03;;;10.80;99.90;;;;;;5054947;28;20172;-67
2022/10/09 08:48:46;;;;;;;6.45;1.60;;;11.10;99.90;;;;;;5055380;28;20044;-67
2022/10/09 08:51:25;;;;;;;7.93;2.70;;;11.30;99.90;;;;;;5038417;28;20095;-67
2022/10/09 08:54:02;;;;;;;5.43;2.15;;;11.40;99.90;;;;;;5055266;28;20099;-67
2022/10/09 08:56:28;;;;;;;7.85;2.05;;;11.60;99.90;;;;;;5055451;28;20103;-67
2022/10/09 08:58:55;;;;;;;9.80;2.35;;;11.70;99.90;;;;;;5038150;28;20053;-67
2022/10/09 09:01:32;;;;;;;8.18;2.47;;;12.00;99.90;;;;;;5055532;28;20469;-67
2022/10/09 09:04:21;;;;;;;8.25;2.50;;;12.10;99.90;;;;;;5054489;28;20489;-67
2022/10/09 09:06:53;;;;;;;8.77;3.40;;;12.20;99.90;;;;;;5056134;28;20076;-67
2022/10/09 09:09:32;;;;;;;14.65;2.63;;;12.30;99.90;;;;;;5055257;28;20270;-67
2022/10/09 09:12:12;;;;;;;10.43;3.35;;;12.30;99.90;;;;;;5054914;28;20044;-68
2022/10/09 09:14:49;;;;;;;7.00;1.48;;;12.40;99.90;;;;;;5054294;28;20530;-68
2022/10/09 09:17:22;;;;;;;11.88;2.90;;;12.40;99.90;;;;;;5037552;28;20053;-68
2022/10/09 09:20:15;;;;;;;6.40;2.00;;;12.60;99.90;;;;;;5055786;28;20468;-68
2022/10/09 09:22:45;;;;;;;7.95;2.10;;;12.70;99.90;;;;;;5054007;28;20140;-68
2022/10/09 09:25:44;;;;;;;8.30;1.98;;;12.70;99.90;;;;;;5054541;28;20384;-68
2022/10/09 09:28:21;;;;;;;15.02;2.22;;;12.80;99.90;;;;;;5040194;28;20037;-67
2022/10/09 09:30:50;;;;;;;6.47;2.65;;;12.80;99.90;;;;;;5053833;28;20045;-67
2022/10/09 09:33:35;;;;;;;10.23;2.50;;;12.90;99.90;;;;;;5053724;28;20044;-68
2022/10/09 09:36:30;;;;;;;9.13;2.58;;;13.10;99.90;;;;;;5054847;28;20080;-68
2022/10/09 09:38:57;;;;;;;6.80;2.50;;;13.20;99.90;;;;;;5036465;28;20040;-67
2022/10/09 09:41:44;;;;;;;8.18;2.22;;;13.30;99.90;;;;;;5053696;28;20120;-67
2022/10/09 09:44:12;;;;;;;5.57;1.52;;;13.40;99.90;;;;;;5054661;28;20041;-67
2022/10/09 09:46:39;;;;;;;9.30;2.20;;;13.50;99.90;;;;;;5054521;28;20048;-68
2022/10/09 09:49:17;;;;;;;5.60;1.88;;;13.50;99.90;;;;;;5054922;28;20151;-67
2022/10/09 09:51:44;;;;;;;5.97;2.38;;;13.60;99.90;;;;;;5037400;28;20076;-67
2022/10/09 09:54:16;;;;;;;7.93;2.22;;;13.60;99.90;;;;;;5054740;28;20045;-68
2022/10/09 09:56:43;;;;;;;9.07;2.13;;;13.70;99.90;;;;;;5053182;28;20500;-67
2022/10/09 09:59:41;;;;;;;4.68;2.15;;;13.70;99.90;;;;;;5053087;28;20059;-67
2022/10/09 10:02:12;;;;;;;8.55;2.42;;;13.80;99.90;;;;;;5053303;28;20049;-67
2022/10/09 10:05:00;;;;;;;8.57;1.90;;;13.90;99.90;;;;;;5053986;28;20041;-67
2022/10/09 10:07:28;;;;;;;7.32;1.80;;;13.90;99.90;;;;;;5053109;28;20041;-67
2022/10/09 10:10:06;;;;;;;5.63;1.70;;;13.90;99.90;;;;;;5053414;28;20122;-68
2022/10/09 10:12:32;;;;;;;8.32;1.65;;;14.00;99.90;;;;;;5053588;28;20049;-68
2022/10/09 10:14:59;;;;;;;5.38;2.15;;;14.10;99.90;;;;;;5052829;28;20071;-67
2022/10/09 10:17:28;;;;;;;8.45;2.75;;;14.20;99.90;;;;;;5053777;28;20053;-67
2022/10/09 10:19:55;;;;;;;9.23;2.47;;;14.30;99.90;;;;;;5052727;28;20076;-68
2022/10/09 10:22:26;;;;;;;9.27;3.25;;;14.40;99.90;;;;;;5052600;28;20335;-67
2022/10/09 10:24:54;;;;;;;5.47;2.13;;;14.50;99.90;;;;;;5036262;28;20095;-68
2022/10/09 10:27:21;;;;;;;4.88;1.83;;;14.60;99.90;;;;;;5054526;28;20041;-67
2022/10/09 10:29:49;;;;;;;4.85;1.92;;;14.60;99.90;;;;;;5053306;28;20419;-68
2022/10/09 10:32:48;;;;;;;12.43;3.42;;;14.70;99.90;;;;;;5053460;28;20049;-68
2022/10/09 10:35:17;;;;;;;8.02;3.17;;;14.70;99.90;;;;;;5053850;28;20439;-68
2022/10/09 10:38:05;;;;;;;;;;;14.80;99.90;;;;;;5053161;28;20416;-68
2022/10/09 10:40:42;;;;;;;11.70;2.78;;;14.80;99.90;;;;;;5053417;28;19916;-68
2022/10/09 10:43:08;;;;;;;5.68;1.85;;;14.90;99.90;;;;;;5036976;28;20049;-68
2022/10/09 10:45:59;;;;;;;10.20;2.88;;;15.00;99.90;;;;;;5053418;28;20473;-68
2022/10/09 10:48:32;;;;;;;10.77;3.85;;;15.00;99.90;;;;;;5043068;28;20049;-68
2022/10/09 10:51:17;;;;;;;10.05;3.05;;;15.10;99.90;;;;;;5053252;28;20091;-69
2022/10/09 10:53:50;;;;;;;9.80;2.20;;;15.20;99.90;;;;;;5052849;28;20052;-67
2022/10/09 10:56:48;;;;;;;5.60;2.03;;;15.20;99.90;;;;;;5052104;28;20049;-67
2022/10/09 10:59:21;;;;;;;8.45;2.28;;;15.10;99.90;;;;;;5044633;28;20091;-68
2022/10/09 11:02:27;;;;;;;15.15;11.82;;;15.20;99.90;;;;;;5053991;28;20513;-66
2022/10/09 11:05:11;;;;;;;8.05;3.55;;;15.20;99.90;;;;;;5052805;28;20099;-67
2022/10/09 11:07:41;;;;;;;6.35;2.55;;;15.20;99.90;;;;;;5052785;28;20439;-67
2022/10/09 11:10:26;;;;;;;5.13;2.50;;;15.30;99.90;;;;;;5053181;28;20469;-66
2022/10/09 11:13:08;;;;;;;5.97;1.67;;;15.30;99.90;;;;;;5052798;28;20095;-66
2022/10/09 11:16:04;;;;;;;7.60;2.45;;;15.40;99.90;;;;;;5053268;28;20053;-66
2022/10/09 11:18:59;;;;;;;7.20;2.15;;;15.40;99.90;;;;;;5038116;28;20095;-66
2022/10/09 11:21:54;;;;;;;4.28;1.90;;;15.50;99.90;;;;;;5051708;28;20132;-67
2022/10/09 11:24:46;;;;;;;6.45;1.85;;;15.50;99.90;;;;;;5053241;28;20052;-67
2022/10/09 11:27:38;;;;;;;5.95;1.80;;;15.60;99.90;;;;;;5052182;28;20102;-67
2022/10/09 11:30:09;;;;;;;7.88;1.90;;;15.70;99.90;;;;;;5036383;28;20380;-66
2022/10/09 11:33:00;;;;;;;6.65;2.17;;;15.60;99.90;;;;;;5052014;28;20499;-66
2022/10/09 11:35:45;;;;;;;6.90;2.03;;;15.60;99.90;;;;;;5036904;28;20040;-67
2022/10/09 11:38:22;;;;;;;7.40;2.20;;;15.60;99.90;;;;;;5051669;28;20102;-67
2022/10/09 11:40:49;;;;;;;9.85;1.92;;;15.70;99.90;;;;;;5051587;28;20115;-67
2022/10/09 11:43:25;;;;;;;4.85;1.65;;;15.70;99.90;;;;;;5052307;28;20045;-67
2022/10/09 11:45:57;;;;;;;5.32;2.05;;;15.70;99.90;;;;;;5053093;28;20389;-67
2022/10/09 11:48:31;;;;;;;6.50;1.90;;;15.70;99.90;;;;;;5035008;28;20045;-67
2022/10/09 11:51:19;;;;;;;6.80;1.80;;;15.80;99.90;;;;;;5052715;28;20041;-68
2022/10/09 11:53:46;;;;;;;5.43;2.10;;;15.80;99.90;;;;;;5036140;28;20041;-67
2022/10/09 11:56:23;;;;;;;6.40;1.73;;;15.80;99.90;;;;;;5051880;28;20041;-67
2022/10/09 11:59:01;;;;;;;6.70;2.03;;;15.80;99.90;;;;;;5052690;28;20041;-67
2022/10/09 12:01:35;;;;;;;8.43;3.53;;;15.80;99.90;;;;;;5054238;28;20483;-67
2022/10/09 12:04:06;;;;;;;4.95;2.20;;;15.90;99.90;;;;;;5055238;28;20044;-67
2022/10/09 12:06:52;;;;;;;8.00;2.10;;;15.90;99.90;;;;;;5056991;28;20409;-67
2022/10/09 12:09:42;;;;;;;4.65;2.38;;;16.00;99.90;;;;;;5056033;28;20041;-67
2022/10/09 12:12:15;;;;;;;6.57;1.63;;;16.00;99.90;;;;;;5056265;28;20052;-67
2022/10/09 12:14:44;;;;;;;5.75;2.30;;;16.10;99.90;;;;;;5056376;28;20048;-67
2022/10/09 12:17:30;;;;;;;5.60;2.28;;;16.10;99.90;;;;;;5055997;28;20353;-67
2022/10/09 12:20:17;;;;;;;5.43;1.70;;;16.20;99.90;;;;;;5039591;28;20048;-67
2022/10/09 12:22:46;;;;;;;4.75;1.77;;;16.20;99.90;;;;;;5054950;28;20053;-69
2022/10/09 12:25:44;;;;;;;3.65;1.80;;;16.20;99.90;;;;;;5055489;28;20045;-68
2022/10/09 12:28:26;;;;;;;59.05;52.63;;;16.20;99.90;;;;;;5054883;28;20052;-66
2022/10/09 12:30:55;;;;;;;10.15;6.25;;;16.10;99.90;;;;;;5056045;28;20044;-67
2022/10/09 12:33:42;;;;;;;8.57;2.70;;;16.20;99.90;;;;;;5054987;28;20041;-67
2022/10/09 12:36:23;;;;;;;5.72;2.03;;;16.30;99.90;;;;;;5054870;28;20045;-68
2022/10/09 12:38:50;;;;;;;8.30;1.90;;;16.30;99.90;;;;;;5054608;28;20037;-67
2022/10/09 12:41:21;;;;;;;7.78;2.25;;;16.30;99.90;;;;;;5054845;28;20045;-68
2022/10/09 12:43:52;;;;;;;14.35;9.57;;;16.30;99.90;;;;;;5055251;28;20385;-66
2022/10/09 12:46:32;;;;;;;8.98;3.20;;;16.30;99.90;;;;;;5054943;28;20366;-66
2022/10/09 12:49:01;;;;;;;5.90;2.40;;;16.30;99.90;;;;;;5054326;28;20053;-66
2022/10/09 12:51:28;;;;;;;7.07;1.87;;;16.20;99.90;;;;;;5054596;28;20041;-66
2022/10/09 12:53:55;;;;;;;4.72;1.67;;;16.30;99.90;;;;;;5055400;28;20045;-66
2022/10/09 12:56:31;;;;;;;5.72;1.90;;;16.30;99.90;;;;;;5055452;28;20041;-65
2022/10/09 12:58:59;;;;;;;5.68;1.73;;;16.40;99.90;;;;;;5054751;28;20131;-65
2022/10/09 13:01:26;;;;;;;5.90;2.03;;;16.40;99.90;;;;;;5054349;28;20087;-68
2022/10/09 13:03:57;;;;;;;6.38;1.73;;;16.40;99.90;;;;;;5055479;28;20051;-69
2022/10/09 13:06:25;;;;;;;5.45;1.20;;;16.40;99.90;;;;;;5054863;28;20045;-66
2022/10/09 13:09:03;;;;;;;4.18;1.83;;;16.50;99.90;;;;;;5056109;28;20391;-66
2022/10/09 13:11:32;;;;;;;4.47;1.85;;;16.50;99.90;;;;;;5054901;28;20075;-66
2022/10/09 13:13:59;;;;;;;5.75;1.50;;;16.50;99.90;;;;;;5054218;28;20082;-66
2022/10/09 13:16:26;;;;;;;8.07;1.73;;;16.50;99.90;;;;;;5054118;28;20045;-67